Time;durP1;ratioP1;P1;durP2;ratioP2;P2;SDS_P1;SDS_P2;PMS_P1;PMS_P2;Temp;Humidity;BMP_temperature;BMP_pressure;BME280_temperature;BME280_humidity;BME280_pressure;Samples;Min_cycle;Max_cycle;Signal;HPM_P1;HPM_P2
2022/01/20 00:01:50;;;;;;;8.07;2.88;;;;;;;3.71;83.92;100913.03;5021881;28;20021;-72
2022/01/20 00:04:35;;;;;;;9.45;3.22;;;;;;;3.64;83.66;100910.34;5006423;28;20131;-72
2022/01/20 00:20:30;;;;;;;7.30;2.05;;;;;;;3.56;83.27;100907.03;5008990;28;21960;-72
2022/01/20 00:23:28;;;;;;;17.35;2.53;;;;;;;3.42;81.60;100926.56;5007371;28;20030;-72
2022/01/20 00:26:08;;;;;;;6.93;2.08;;;;;;;3.46;81.77;100930.47;5024462;28;20065;-72
2022/01/20 00:28:45;;;;;;;9.43;1.80;;;;;;;3.38;81.30;100931.41;5006197;28;20029;-73
2022/01/20 00:31:32;;;;;;;9.05;2.25;;;;;;;3.44;81.02;100932.50;5005472;28;20036;-73
2022/01/20 00:34:11;;;;;;;7.20;1.98;;;;;;;3.38;81.22;100938.56;5005409;28;20534;-73
2022/01/20 00:39:22;;;;;;;8.52;2.13;;;;;;;3.46;81.16;100933.91;5005695;28;20112;-73
2022/01/20 00:41:47;;;;;;;8.88;2.33;;;;;;;3.51;81.08;100931.50;5008273;28;20100;-73
2022/01/20 00:44:13;;;;;;;8.77;1.88;;;;;;;3.48;81.20;100939.03;5006033;28;20109;-73
2022/01/20 00:46:38;;;;;;;10.13;1.73;;;;;;;3.42;81.11;100937.16;5007808;28;20509;-73
2022/01/20 00:49:04;;;;;;;11.32;1.77;;;;;;;3.44;80.90;100935.94;5011559;28;20195;-72
2022/01/20 00:51:29;;;;;;;8.88;1.85;;;;;;;3.41;80.29;100946.09;5007133;28;20025;-73
2022/01/20 00:53:55;;;;;;;10.55;1.90;;;;;;;3.39;79.89;100950.78;5021214;28;20037;-73
2022/01/20 00:56:21;;;;;;;5.47;1.50;;;;;;;3.41;79.71;100956.69;5005792;28;20101;-73
2022/01/20 00:58:46;;;;;;;7.05;1.88;;;;;;;3.30;78.34;100956.25;5006932;28;20033;-72
2022/01/20 01:01:12;;;;;;;12.25;3.35;;;;;;;3.28;77.93;100963.56;5007846;28;20024;-72
2022/01/20 01:03:37;;;;;;;13.32;2.08;;;;;;;3.31;78.27;100971.13;5004068;28;20037;-73
2022/01/20 01:06:19;;;;;;;7.97;1.52;;;;;;;3.28;77.12;100974.16;5005163;28;20021;-73
2022/01/20 01:08:44;;;;;;;8.13;1.50;;;;;;;3.21;75.55;100968.00;5013407;28;20049;-72
2022/01/20 01:11:10;;;;;;;11.43;2.25;;;;;;;3.14;73.90;100964.50;5000148;28;20105;-73
2022/01/20 01:13:36;;;;;;;6.93;1.60;;;;;;;3.14;74.03;100961.84;5000785;28;20026;-72
2022/01/20 01:16:03;;;;;;;7.38;1.60;;;;;;;3.16;73.15;100981.00;5001999;28;20028;-72
2022/01/20 01:21:26;;;;;;;12.33;2.10;;;;;;;3.06;72.15;100972.59;5005335;28;20125;-72
2022/01/20 01:23:51;;;;;;;10.60;1.90;;;;;;;3.02;72.10;100966.84;5002967;28;20029;-72
2022/01/20 01:26:20;;;;;;;8.80;1.73;;;;;;;2.99;70.66;100963.78;5004728;28;20033;-72
2022/01/20 01:28:46;;;;;;;14.45;2.00;;;;;;;2.96;71.29;100951.75;5005084;28;20032;-72
2022/01/20 01:31:32;;;;;;;11.00;1.80;;;;;;;2.97;71.33;100947.28;5006545;28;20025;-72
2022/01/20 01:34:03;;;;;;;6.65;1.75;;;;;;;2.92;70.61;100952.34;5002370;28;20077;-73
2022/01/20 01:36:33;;;;;;;12.95;2.30;;;;;;;2.91;70.56;100953.34;5007379;28;20025;-72
2022/01/20 01:38:59;;;;;;;10.85;2.05;;;;;;;2.88;70.57;100951.09;5000866;28;20048;-72
2022/01/20 01:41:36;;;;;;;7.13;2.00;;;;;;;2.86;70.64;100953.09;5001608;28;20022;-72
2022/01/20 01:44:06;;;;;;;7.78;2.17;;;;;;;2.85;70.24;100954.91;5006747;28;20024;-72
2022/01/20 01:46:33;;;;;;;16.17;2.10;;;;;;;2.76;68.90;100953.44;5022650;28;20037;-72
2022/01/20 01:48:58;;;;;;;12.38;1.92;;;;;;;2.71;68.77;100948.72;5022532;28;20288;-72
2022/01/20 01:51:24;;;;;;;7.63;2.10;;;;;;;2.77;69.84;100955.06;5016298;28;20404;-72
2022/01/20 01:53:50;;;;;;;9.02;1.40;;;;;;;2.83;70.03;100959.59;5016056;28;20025;-73
2022/01/20 01:56:16;;;;;;;6.25;1.58;;;;;;;2.79;69.85;100952.22;5008232;28;20105;-72
2022/01/20 01:58:41;;;;;;;9.73;2.08;;;;;;;2.81;70.03;100947.56;5006037;28;20053;-72
2022/01/20 02:01:07;;;;;;;8.75;1.42;;;;;;;2.82;69.64;100944.72;5007090;28;20057;-73
2022/01/20 02:03:41;;;;;;;7.47;1.45;;;;;;;2.82;70.00;100935.97;5007514;28;20558;-72
2022/01/20 02:08:43;;;;;;;6.95;1.60;;;;;;;2.75;70.24;100929.81;5006119;28;20036;-72
2022/01/20 02:19:23;;;;;;;14.13;1.70;;;;;;;2.62;71.79;100910.19;5002786;28;20099;-72
2022/01/20 02:21:54;;;;;;;9.45;1.85;;;;;;;2.62;71.90;100910.19;5002310;28;20058;-73
2022/01/20 02:24:20;;;;;;;8.40;1.80;;;;;;;2.63;72.00;100911.81;5002789;28;20476;-72
2022/01/20 02:26:46;;;;;;;5.80;1.25;;;;;;;2.57;72.20;100925.81;4992244;28;20068;-73
2022/01/20 02:29:12;;;;;;;6.18;1.25;;;;;;;2.59;72.46;100920.34;5002000;28;20128;-72
2022/01/20 02:31:39;;;;;;;9.55;2.70;;;;;;;2.58;72.54;100922.16;5002034;28;20033;-72
2022/01/20 02:34:05;;;;;;;11.52;1.83;;;;;;;2.52;72.92;100920.28;5015850;28;20419;-72
2022/01/20 02:36:32;;;;;;;7.03;1.48;;;;;;;2.54;72.98;100915.63;5020261;28;20446;-72
2022/01/20 02:39:05;;;;;;;15.77;2.35;;;;;;;2.51;73.08;100913.34;5005240;28;20175;-73
2022/01/20 02:46:58;;;;;;;5.22;1.70;;;;;;;2.51;73.20;100909.88;5006436;28;20039;-72
2022/01/20 02:49:24;;;;;;;11.10;2.03;;;;;;;2.50;73.62;100897.66;5005324;28;20021;-72
2022/01/20 02:51:52;;;;;;;12.02;2.25;;;;;;;2.46;73.99;100913.09;5004351;28;20563;-72
2022/01/20 02:54:19;;;;;;;6.88;1.40;;;;;;;2.48;73.86;100904.97;5000052;28;20040;-72
2022/01/20 02:56:44;;;;;;;8.02;1.92;;;;;;;2.44;73.54;100907.19;5019775;28;20025;-72
2022/01/20 02:59:10;;;;;;;14.00;1.90;;;;;;;2.42;74.01;100893.34;5004879;28;20025;-72
2022/01/20 03:01:35;;;;;;;7.75;1.98;;;;;;;2.46;74.01;100883.19;5004850;28;20033;-72
2022/01/20 03:04:02;;;;;;;10.43;1.63;;;;;;;2.41;73.55;100887.22;5003819;28;20021;-72
2022/01/20 03:06:28;;;;;;;11.23;2.28;;;;;;;2.41;73.23;100886.41;5018792;28;20041;-72
2022/01/20 03:08:53;;;;;;;11.80;1.65;;;;;;;2.37;73.16;100885.16;5002544;28;20829;-72
2022/01/20 03:11:19;;;;;;;7.80;1.80;;;;;;;2.35;73.23;100881.91;5006648;28;20029;-72
2022/01/20 03:13:45;;;;;;;12.40;2.35;;;;;;;2.38;73.38;100886.81;5003429;28;20030;-72
2022/01/20 03:16:10;;;;;;;14.82;1.73;;;;;;;2.36;72.71;100871.13;5000630;28;20056;-72
2022/01/20 03:18:36;;;;;;;7.15;1.60;;;;;;;2.31;72.31;100891.19;5019040;28;20572;-72
2022/01/20 03:21:01;;;;;;;9.45;1.98;;;;;;;2.31;72.38;100886.72;5003116;28;20088;-72
2022/01/20 03:23:27;;;;;;;8.95;2.05;;;;;;;2.31;72.33;100893.84;5005149;28;20088;-73
2022/01/20 03:25:53;;;;;;;9.05;2.90;;;;;;;2.33;72.38;100884.69;4998986;28;20786;-72
2022/01/20 03:28:19;;;;;;;9.38;2.42;;;;;;;2.32;72.57;100882.25;5005247;28;20036;-72
2022/01/20 03:30:44;;;;;;;8.55;2.25;;;;;;;2.36;72.42;100883.53;5024090;28;20034;-72
2022/01/20 03:33:10;;;;;;;9.18;1.30;;;;;;;2.37;72.17;100875.41;5009460;28;20061;-72
2022/01/20 03:35:36;;;;;;;11.10;1.73;;;;;;;2.40;72.50;100880.31;5010446;28;20419;-73
2022/01/20 03:38:02;;;;;;;5.97;1.30;;;;;;;2.40;72.13;100876.84;5006092;28;20111;-73
2022/01/20 03:40:28;;;;;;;12.48;1.80;;;;;;;2.39;72.17;100869.94;5023195;28;20463;-73
2022/01/20 03:42:54;;;;;;;5.28;1.25;;;;;;;2.36;72.13;100873.78;5008873;28;20038;-72
2022/01/20 03:45:24;;;;;;;8.18;1.65;;;;;;;2.37;72.59;100882.53;5007461;28;20033;-72
2022/01/20 03:47:51;;;;;;;8.43;2.13;;;;;;;2.35;72.52;100895.13;5005538;28;20029;-72
2022/01/20 03:53:00;;;;;;;11.90;2.25;;;;;;;2.35;72.82;100909.16;5007995;28;20568;-72
2022/01/20 03:55:26;;;;;;;7.70;1.83;;;;;;;2.43;73.10;100926.69;5017269;28;20033;-72
2022/01/20 03:57:51;;;;;;;13.68;2.22;;;;;;;2.45;73.28;100910.66;5021832;28;20407;-73
2022/01/20 04:00:17;;;;;;;8.30;1.88;;;;;;;2.49;72.90;100919.81;5006649;28;20431;-72
2022/01/20 04:02:43;;;;;;;9.82;1.33;;;;;;;2.30;74.03;100945.91;5020902;28;20026;-72
2022/01/20 04:05:08;;;;;;;9.82;1.48;;;;;;;2.24;75.10;100953.78;5005031;28;20034;-72
2022/01/20 04:07:34;;;;;;;2.60;1.02;;;;;;;2.13;74.39;100950.63;5025474;28;20017;-72
2022/01/20 04:09:59;;;;;;;7.93;1.05;;;;;;;1.97;73.93;100937.63;5023109;28;20100;-72
2022/01/20 04:12:25;;;;;;;7.60;1.20;;;;;;;1.71;72.97;100932.06;5002939;28;20060;-72
2022/01/20 04:14:50;;;;;;;6.40;1.00;;;;;;;1.52;73.23;100925.53;5000098;28;20037;-73
2022/01/20 04:17:20;;;;;;;7.35;1.02;;;;;;;1.34;73.00;100927.75;5006721;28;20034;-72
2022/01/20 04:19:46;;;;;;;4.38;0.88;;;;;;;1.31;73.88;100910.47;5005607;28;20037;-72
2022/01/20 04:22:12;;;;;;;4.03;0.75;;;;;;;1.20;73.58;100903.81;5008138;28;20493;-72
2022/01/20 04:24:37;;;;;;;7.32;1.42;;;;;;;1.24;73.79;100909.53;5023816;28;20026;-72
2022/01/20 04:27:04;;;;;;;5.07;0.88;;;;;;;1.18;73.93;100903.16;5006309;28;20025;-73
2022/01/20 04:29:29;;;;;;;2.97;1.10;;;;;;;1.20;73.87;100918.81;5008776;28;20051;-73
2022/01/20 04:31:55;;;;;;;7.38;1.42;;;;;;;1.21;73.67;100913.34;5006497;28;20488;-72
2022/01/20 04:34:21;;;;;;;4.03;1.00;;;;;;;1.20;73.63;100927.56;5006231;28;20030;-73
2022/01/20 04:36:50;;;;;;;4.32;0.90;;;;;;;1.23;72.75;100934.28;5005645;28;20033;-73
2022/01/20 04:39:20;;;;;;;4.38;1.10;;;;;;;1.24;71.90;100935.94;5022198;28;20133;-73
2022/01/20 04:41:47;;;;;;;5.18;1.10;;;;;;;1.28;71.38;100924.03;5004208;28;20040;-73
2022/01/20 04:44:19;;;;;;;6.57;1.02;;;;;;;1.30;70.82;100931.75;5002876;28;20026;-73
2022/01/20 04:57:23;;;;;;;5.50;0.90;;;;;;;1.20;68.56;100934.66;5008781;28;20032;-73
2022/01/20 04:59:50;;;;;;;6.00;0.88;;;;;;;1.22;68.33;100922.09;5001708;28;20942;-73
2022/01/20 05:02:16;;;;;;;2.08;0.70;;;;;;;1.22;68.18;100922.09;5003961;28;20164;-73
2022/01/20 05:04:42;;;;;;;6.15;1.00;;;;;;;1.14;67.64;100907.19;5020485;28;20164;-73
2022/01/20 05:07:10;;;;;;;3.45;0.85;;;;;;;1.16;68.05;100905.19;5005151;28;20018;-73
2022/01/20 05:09:35;;;;;;;2.70;0.90;;;;;;;1.17;68.18;100916.56;5004496;28;20030;-73
2022/01/20 05:12:07;;;;;;;6.10;1.00;;;;;;;1.09;68.21;100919.31;5005942;28;20057;-73
2022/01/20 05:14:32;;;;;;;4.75;1.00;;;;;;;1.05;68.04;100921.47;5005308;28;20026;-73
2022/01/20 05:16:59;;;;;;;6.72;1.13;;;;;;;1.03;68.33;100922.63;5005551;28;20032;-73
2022/01/20 05:19:30;;;;;;;4.50;0.82;;;;;;;1.03;67.89;100928.75;5006965;28;20022;-73
2022/01/20 05:21:57;;;;;;;5.70;1.20;;;;;;;1.09;68.58;100919.31;5005874;28;20069;-73
2022/01/20 05:24:23;;;;;;;8.38;1.30;;;;;;;1.04;67.68;100914.53;5023366;28;20025;-73
2022/01/20 05:26:50;;;;;;;7.60;1.42;;;;;;;1.09;67.99;100916.66;5005517;28;20718;-73
2022/01/20 05:29:17;;;;;;;7.20;1.05;;;;;;;1.10;67.73;100918.28;5021896;28;20058;-73
2022/01/20 05:31:43;;;;;;;3.95;1.10;;;;;;;1.12;67.91;100916.28;5019089;28;20022;-73
2022/01/20 05:34:08;;;;;;;3.35;0.98;;;;;;;1.11;68.06;100917.28;5022445;28;20092;-73
2022/01/20 05:36:34;;;;;;;5.57;0.98;;;;;;;1.14;66.12;100888.72;5023301;28;20057;-73
2022/01/20 05:39:00;;;;;;;5.72;1.67;;;;;;;1.16;66.25;100888.53;5005188;28;20026;-73
2022/01/20 05:41:25;;;;;;;5.55;0.98;;;;;;;1.21;64.85;100892.25;5022129;28;20462;-73
2022/01/20 05:43:51;;;;;;;4.72;1.10;;;;;;;1.17;62.13;100919.19;5007288;28;20017;-73
2022/01/20 05:46:21;;;;;;;5.47;0.60;;;;;;;1.24;62.44;100914.81;5020910;28;20033;-72
2022/01/20 05:48:48;;;;;;;6.43;1.10;;;;;;;1.23;62.41;100939.56;5007851;28;20041;-73
2022/01/20 05:51:14;;;;;;;4.38;0.85;;;;;;;1.19;62.11;100933.03;5023213;28;20025;-75
2022/01/20 05:53:40;;;;;;;4.75;1.00;;;;;;;1.12;62.78;100951.41;5006773;28;20092;-72
2022/01/20 05:56:05;;;;;;;4.22;1.10;;;;;;;1.05;63.11;100949.66;5021310;28;20534;-72
2022/01/20 05:58:36;;;;;;;4.13;0.70;;;;;;;0.99;63.74;100958.31;5004131;28;20041;-72
2022/01/20 06:01:05;;;;;;;1.98;0.55;;;;;;;0.89;62.81;100964.66;5005908;28;20132;-71
2022/01/20 06:03:36;;;;;;;3.22;0.60;;;;;;;0.86;62.76;100974.75;5001061;28;20497;-70
2022/01/20 06:06:07;;;;;;;3.50;0.77;;;;;;;0.83;63.00;100989.13;5001402;28;20025;-71
2022/01/20 06:08:33;;;;;;;6.90;1.17;;;;;;;0.87;62.58;101018.59;5001220;28;20037;-71
2022/01/20 06:10:59;;;;;;;9.25;1.30;;;;;;;0.93;65.29;101030.28;5001699;28;20038;-71
2022/01/20 06:13:25;;;;;;;4.60;1.33;;;;;;;0.74;68.86;101026.31;4996177;28;20028;-71
2022/01/20 06:15:51;;;;;;;4.30;0.95;;;;;;;0.65;70.16;101014.16;5001248;28;20037;-70
2022/01/20 06:18:17;;;;;;;4.95;1.30;;;;;;;0.47;71.68;101009.19;5016355;28;20056;-71
2022/01/20 06:20:44;;;;;;;4.78;1.00;;;;;;;0.48;71.43;101019.56;5000952;28;20552;-71
2022/01/20 06:23:10;;;;;;;5.82;1.08;;;;;;;0.44;72.17;101028.81;5001835;28;20034;-71
2022/01/20 06:25:36;;;;;;;5.57;0.85;;;;;;;0.44;71.83;101028.00;4999660;28;20025;-71
2022/01/20 06:28:02;;;;;;;3.97;0.95;;;;;;;0.28;73.70;101034.19;4995879;28;20017;-71
2022/01/20 06:30:29;;;;;;;3.13;0.77;;;;;;;0.27;73.38;101027.28;5016944;28;20498;-71
2022/01/20 06:32:55;;;;;;;3.05;1.08;;;;;;;0.26;73.79;101037.00;5002515;28;20028;-71
2022/01/20 06:35:21;;;;;;;3.75;0.70;;;;;;;0.23;73.15;101032.06;5017942;28;20029;-71
2022/01/20 06:37:47;;;;;;;3.28;0.80;;;;;;;0.18;73.64;101029.16;4995150;28;20026;-71
2022/01/20 06:40:13;;;;;;;2.78;0.65;;;;;;;0.19;73.41;101025.53;5001238;28;20037;-71
2022/01/20 06:42:39;;;;;;;5.97;1.17;;;;;;;0.22;73.35;101027.81;5002874;28;20045;-71
2022/01/20 06:45:08;;;;;;;5.25;0.80;;;;;;;0.21;72.78;101036.69;5001290;28;20121;-70
2022/01/20 06:47:33;;;;;;;5.00;0.70;;;;;;;0.21;72.48;101043.78;5001205;28;20537;-70
2022/01/20 06:49:59;;;;;;;3.88;0.60;;;;;;;0.14;71.51;101054.19;5000178;28;20033;-71
2022/01/20 06:52:26;;;;;;;3.85;1.00;;;;;;;0.13;70.80;101052.53;5002183;28;20033;-70
2022/01/20 06:54:51;;;;;;;2.75;0.73;;;;;;;0.02;70.17;101052.94;5016334;28;20061;-70
2022/01/20 06:57:17;;;;;;;6.18;1.45;;;;;;;0.08;70.78;101061.97;5000890;28;20504;-71
2022/01/20 06:59:43;;;;;;;1.52;0.50;;;;;;;0.08;70.37;101073.31;4996116;28;20142;-70
2022/01/20 07:02:08;;;;;;;2.55;0.47;;;;;;;0.06;70.33;101093.75;5001467;28;20026;-71
2022/01/20 07:04:34;;;;;;;2.00;0.73;;;;;;;0.03;70.34;101094.09;5002372;28;20029;-70
2022/01/20 07:07:00;;;;;;;1.48;0.60;;;;;;;0.08;70.79;101102.28;5000643;28;20033;-70
2022/01/20 07:09:25;;;;;;;1.80;0.77;;;;;;;0.06;70.19;101104.28;5001449;28;20068;-71
2022/01/20 07:11:51;;;;;;;3.30;0.90;;;;;;;0.03;70.25;101116.97;5002860;28;20085;-70
2022/01/20 07:14:17;;;;;;;3.05;1.38;;;;;;;0.02;69.88;101113.53;4995380;28;20748;-71
2022/01/20 07:16:42;;;;;;;5.43;1.17;;;;;;;-0.06;70.12;101111.72;4994080;28;20515;-70
2022/01/20 07:19:08;;;;;;;1.95;0.70;;;;;;;-0.05;69.53;101117.81;5000750;28;20284;-70
2022/01/20 07:21:34;;;;;;;3.13;0.80;;;;;;;-0.09;69.75;101119.16;5000816;28;20029;-70
2022/01/20 07:23:59;;;;;;;3.70;0.77;;;;;;;-0.14;69.61;101110.94;5001280;28;20030;-71
2022/01/20 07:26:25;;;;;;;1.02;0.73;;;;;;;-0.20;69.33;101112.41;5000707;28;20022;-71
2022/01/20 07:28:50;;;;;;;6.55;0.80;;;;;;;-0.17;69.73;101121.81;4998302;28;20038;-71
2022/01/20 07:31:20;;;;;;;1.83;0.70;;;;;;;-0.27;68.89;101131.72;5015562;28;20033;-71
2022/01/20 07:33:46;;;;;;;3.70;0.60;;;;;;;-0.25;69.71;101122.66;4999077;28;20096;-71
2022/01/20 07:36:13;;;;;;;4.05;0.80;;;;;;;-0.31;69.36;101134.69;5001912;28;20128;-71
2022/01/20 07:38:38;;;;;;;4.53;0.82;;;;;;;-0.35;69.76;101151.81;5011345;28;20514;-71
2022/01/20 07:41:04;;;;;;;3.83;0.82;;;;;;;-0.26;69.78;101139.44;5001609;28;20068;-70
2022/01/20 07:43:29;;;;;;;6.15;1.27;;;;;;;-0.23;70.09;101138.28;5002597;28;20537;-71
2022/01/20 07:45:55;;;;;;;2.92;0.95;;;;;;;-0.15;69.90;101140.91;5003048;28;20025;-71
2022/01/20 07:48:21;;;;;;;3.08;0.75;;;;;;;-0.19;69.68;101156.19;4999866;28;20038;-71
2022/01/20 07:50:46;;;;;;;4.22;0.82;;;;;;;-0.22;69.84;101148.63;5001650;28;20034;-71
2022/01/20 07:53:12;;;;;;;1.88;0.60;;;;;;;-0.15;69.77;101154.06;5000373;28;20589;-71
2022/01/20 07:55:38;;;;;;;4.93;0.73;;;;;;;-0.14;69.75;101161.81;5014904;28;20033;-71
2022/01/20 07:58:05;;;;;;;3.75;0.70;;;;;;;-0.14;69.65;101143.38;5015241;28;20047;-71
2022/01/20 08:00:31;;;;;;;3.15;0.88;;;;;;;-0.12;69.42;101159.81;4996158;28;20030;-71
2022/01/20 08:02:56;;;;;;;2.08;0.65;;;;;;;-0.04;69.66;101159.78;4999324;28;20029;-71
2022/01/20 08:05:22;;;;;;;2.75;1.27;;;;;;;-0.03;69.25;101173.78;4998666;28;20044;-71
2022/01/20 08:07:48;;;;;;;10.18;1.20;;;;;;;0.06;69.05;101169.31;4999843;28;20037;-71
2022/01/20 08:10:14;;;;;;;1.58;0.63;;;;;;;0.01;68.78;101167.22;5000205;28;20033;-71
2022/01/20 08:12:39;;;;;;;2.83;0.60;;;;;;;0.11;68.79;101174.91;4994180;28;20032;-70
2022/01/20 08:15:09;;;;;;;4.18;1.00;;;;;;;0.22;68.88;101178.00;5004097;28;20784;-71
2022/01/20 08:17:35;;;;;;;4.05;1.25;;;;;;;0.29;68.68;101186.03;4996691;28;20029;-71
2022/01/20 08:20:01;;;;;;;3.78;0.70;;;;;;;0.30;67.84;101191.16;5003741;28;20142;-71
2022/01/20 08:22:28;;;;;;;4.95;0.90;;;;;;;0.34;67.84;101190.81;5007015;28;20025;-70
2022/01/20 08:24:53;;;;;;;3.53;0.60;;;;;;;0.37;67.68;101196.56;5003391;28;20033;-72
2022/01/20 08:27:20;;;;;;;5.00;0.90;;;;;;;0.39;67.50;101206.94;5002595;28;20101;-73
2022/01/20 08:29:46;;;;;;;1.90;1.02;;;;;;;0.49;67.69;101199.66;4999745;28;20026;-73
2022/01/20 08:32:12;;;;;;;5.65;0.60;;;;;;;0.58;66.79;101193.34;5004868;28;20044;-73
2022/01/20 08:34:37;;;;;;;2.45;0.55;;;;;;;0.71;67.44;101183.06;5012266;28;20048;-73
2022/01/20 08:37:03;;;;;;;5.88;0.90;;;;;;;0.76;67.15;101190.47;5015806;28;20415;-73
2022/01/20 08:42:03;;;;;;;4.80;0.90;;;;;;;0.81;65.93;101194.22;5004570;28;20214;-73
2022/01/20 08:44:29;;;;;;;2.83;0.77;;;;;;;0.86;65.90;101196.34;5000903;28;20476;-73
2022/01/20 08:46:57;;;;;;;3.47;0.60;;;;;;;0.92;65.70;101194.84;4995944;28;20112;-70
2022/01/20 08:49:23;;;;;;;4.22;1.23;;;;;;;0.90;65.13;101195.00;5018307;28;20025;-71
2022/01/20 08:51:48;;;;;;;7.72;1.35;;;;;;;0.83;64.48;101201.97;5002135;28;20053;-71
2022/01/20 08:54:14;;;;;;;5.35;1.25;;;;;;;0.88;64.96;101200.44;5001401;28;20075;-71
2022/01/20 08:56:41;;;;;;;6.50;1.08;;;;;;;0.81;64.33;101196.84;5001818;28;20071;-71
2022/01/20 08:59:09;;;;;;;5.75;1.00;;;;;;;0.80;64.28;101203.13;5013860;28;20030;-71
2022/01/20 09:01:37;;;;;;;5.38;0.98;;;;;;;0.80;64.71;101207.59;4999807;28;20481;-71
2022/01/20 09:04:03;;;;;;;5.68;0.82;;;;;;;0.80;64.16;101197.84;5001683;28;20101;-71
2022/01/20 09:06:29;;;;;;;6.38;0.82;;;;;;;0.75;63.76;101194.94;5016843;28;20117;-71
2022/01/20 09:08:55;;;;;;;6.00;1.00;;;;;;;0.76;63.75;101195.75;5002379;28;20156;-71
2022/01/20 09:11:30;;;;;;;4.38;1.10;;;;;;;0.77;64.22;101198.22;5002317;28;20479;-71
2022/01/20 09:16:41;;;;;;;3.70;1.40;;;;;;;0.95;63.41;101192.66;5000232;28;20121;-71
2022/01/20 09:19:08;;;;;;;7.35;1.60;;;;;;;1.11;62.99;101197.84;5014408;28;20045;-71
2022/01/20 09:21:34;;;;;;;5.60;1.15;;;;;;;1.26;62.55;101199.69;5001182;28;20037;-71
2022/01/20 09:23:59;;;;;;;4.65;1.30;;;;;;;1.32;62.35;101205.13;5015875;28;20040;-71
2022/01/20 09:26:25;;;;;;;4.70;1.38;;;;;;;1.36;62.72;101200.31;5000439;28;20018;-70
2022/01/20 09:28:51;;;;;;;14.55;2.45;;;;;;;1.34;62.23;101192.56;5000714;28;20052;-71
2022/01/20 09:31:22;;;;;;;10.50;3.00;;;;;;;1.34;61.60;101202.31;5000443;28;20033;-71
2022/01/20 09:33:48;;;;;;;16.75;4.97;;;;;;;1.33;61.68;101204.13;5015080;28;20935;-71
2022/01/20 09:36:13;;;;;;;19.38;5.88;;;;;;;1.33;61.63;101219.13;5001683;28;20037;-71
2022/01/20 09:38:39;;;;;;;21.42;8.80;;;;;;;1.31;61.21;101223.78;5015324;28;20037;-71
2022/01/20 09:41:06;;;;;;;18.15;6.80;;;;;;;1.36;61.39;101214.31;5015766;28;20160;-71
2022/01/20 09:43:33;;;;;;;9.13;3.75;;;;;;;1.37;61.23;101221.25;5000155;28;20111;-71
2022/01/20 09:45:59;;;;;;;5.95;1.70;;;;;;;1.30;60.38;101219.50;4995876;28;20025;-71
2022/01/20 09:48:27;;;;;;;8.10;2.05;;;;;;;1.31;60.73;101216.69;5001097;28;20041;-71
2022/01/20 09:50:53;;;;;;;6.35;1.88;;;;;;;1.47;60.78;101226.31;5001688;28;20487;-71
2022/01/20 09:53:19;;;;;;;8.35;1.90;;;;;;;1.61;60.65;101229.97;5000045;28;20060;-70
2022/01/20 09:55:46;;;;;;;7.10;1.30;;;;;;;1.65;60.37;101221.53;5000296;28;20582;-71
2022/01/20 09:58:13;;;;;;;6.57;1.60;;;;;;;1.76;60.95;101222.91;5011603;28;20029;-71
2022/01/20 10:00:41;;;;;;;3.75;1.10;;;;;;;1.77;60.79;101224.56;4998839;28;20125;-71
2022/01/20 10:03:10;;;;;;;3.50;1.48;;;;;;;1.80;60.05;101229.50;5001139;28;20040;-71
2022/01/20 10:05:51;;;;;;;7.25;1.80;;;;;;;1.91;60.01;101218.47;5017395;28;20025;-71
2022/01/20 10:08:22;;;;;;;8.52;1.50;;;;;;;2.01;59.84;101211.13;5004640;28;20164;-71
2022/01/20 10:10:56;;;;;;;2.42;1.25;;;;;;;2.11;60.31;101211.66;5005314;28;20057;-71
2022/01/20 10:13:28;;;;;;;6.47;1.60;;;;;;;2.11;59.87;101193.16;5001347;28;20120;-71
2022/01/20 10:16:06;;;;;;;2.47;1.20;;;;;;;2.07;59.42;101206.94;5005658;28;20033;-71
2022/01/20 10:18:34;;;;;;;5.32;1.13;;;;;;;2.07;59.93;101207.75;4998766;28;20037;-71
2022/01/20 10:21:03;;;;;;;10.43;1.50;;;;;;;2.01;59.77;101218.25;5004421;28;20113;-71
2022/01/20 10:23:33;;;;;;;9.13;1.30;;;;;;;1.96;59.78;101210.84;5019218;28;20088;-71
2022/01/20 10:26:06;;;;;;;7.72;1.20;;;;;;;1.91;59.85;101212.38;5019965;28;20034;-71
2022/01/20 10:29:03;;;;;;;6.32;1.40;;;;;;;1.86;59.76;101220.84;5004526;28;20088;-71
2022/01/20 10:31:34;;;;;;;4.93;2.40;;;;;;;1.91;60.29;101207.09;5016836;28;20036;-71
2022/01/20 10:34:00;;;;;;;5.20;1.10;;;;;;;1.91;60.30;101218.47;5020992;28;20034;-71
2022/01/20 10:36:26;;;;;;;8.18;1.35;;;;;;;1.92;60.31;101211.38;5007066;28;20041;-71
2022/01/20 10:38:55;;;;;;;6.60;1.48;;;;;;;1.97;60.25;101224.88;5005366;28;20038;-71
2022/01/20 10:41:36;;;;;;;7.45;1.13;;;;;;;1.92;59.50;101228.06;5006905;28;20098;-71
2022/01/20 10:44:11;;;;;;;5.95;1.00;;;;;;;1.94;59.94;101217.31;5006220;28;20609;-71
2022/01/20 10:46:48;;;;;;;3.83;1.08;;;;;;;2.01;60.15;101229.63;5007721;28;20021;-71
2022/01/20 10:49:15;;;;;;;9.10;1.20;;;;;;;2.04;60.09;101226.63;5018902;28;20103;-71
2022/01/20 10:51:41;;;;;;;10.65;2.00;;;;;;;2.05;59.96;101224.81;5006170;28;20053;-71
2022/01/20 10:54:10;;;;;;;6.53;1.30;;;;;;;2.08;59.69;101222.59;5006334;28;20072;-71
2022/01/20 10:56:49;;;;;;;5.57;1.20;;;;;;;2.20;59.96;101235.41;5005821;28;20030;-71
2022/01/20 10:59:15;;;;;;;7.57;1.25;;;;;;;2.29;60.01;101237.75;5006749;28;20036;-71
2022/01/20 11:01:40;;;;;;;6.85;1.15;;;;;;;2.26;60.13;101232.00;5004634;28;20030;-71
2022/01/20 11:04:07;;;;;;;10.10;1.50;;;;;;;2.28;60.03;101233.47;5019803;28;20018;-71
2022/01/20 11:06:36;;;;;;;7.25;1.40;;;;;;;2.20;60.27;101233.56;5006461;28;20030;-72
2022/01/20 11:09:07;;;;;;;10.93;1.90;;;;;;;2.22;60.24;101230.75;5006129;28;20040;-71
2022/01/20 11:11:34;;;;;;;8.98;1.70;;;;;;;2.23;60.13;101238.50;5016771;28;20487;-71
2022/01/20 11:14:00;;;;;;;7.65;1.40;;;;;;;2.39;60.06;101259.47;5001128;28;20072;-72
2022/01/20 11:16:27;;;;;;;6.68;1.35;;;;;;;2.64;59.65;101256.53;5017744;28;20483;-72
2022/01/20 11:18:52;;;;;;;7.63;2.03;;;;;;;2.78;59.08;101260.19;5004304;28;20038;-72
2022/01/20 11:21:26;;;;;;;7.45;1.33;;;;;;;2.80;58.60;101260.81;5006461;28;20450;-72
2022/01/20 11:23:51;;;;;;;8.57;1.10;;;;;;;2.89;58.96;101263.19;5005712;28;20033;-71
2022/01/20 11:26:17;;;;;;;12.63;1.42;;;;;;;2.84;58.77;101262.09;5004617;28;20029;-72
2022/01/20 11:28:57;;;;;;;5.75;1.67;;;;;;;2.73;58.74;101258.94;5018420;28;20029;-72
2022/01/20 11:31:31;;;;;;;8.65;1.42;;;;;;;2.69;59.12;101270.88;5018478;28;20506;-72
2022/01/20 11:33:56;;;;;;;7.65;1.65;;;;;;;2.67;59.47;101270.22;5020344;28;20088;-71
2022/01/20 11:36:29;;;;;;;8.55;1.25;;;;;;;2.75;59.11;101264.03;5019333;28;20065;-71
2022/01/20 11:39:04;;;;;;;7.00;1.60;;;;;;;2.91;58.97;101270.94;5005188;28;20144;-71
2022/01/20 11:41:34;;;;;;;6.57;1.40;;;;;;;2.94;58.63;101275.88;5005805;28;20474;-71
2022/01/20 11:44:08;;;;;;;6.30;1.40;;;;;;;2.91;58.56;101273.59;5007426;28;20152;-71
2022/01/20 11:46:43;;;;;;;9.68;1.65;;;;;;;2.94;58.41;101279.34;5000143;28;20026;-71
2022/01/20 11:49:11;;;;;;;7.60;1.45;;;;;;;3.00;58.62;101268.00;5005814;28;20562;-71
2022/01/20 11:51:58;;;;;;;10.35;2.35;;;;;;;3.01;58.34;101274.09;5010518;28;20057;-71
2022/01/20 11:54:23;;;;;;;8.30;1.77;;;;;;;2.95;58.49;101273.03;5007715;28;20662;-72
2022/01/20 11:56:49;;;;;;;11.98;2.75;;;;;;;2.88;58.74;101272.16;5007402;28;20026;-71
2022/01/20 11:59:15;;;;;;;7.72;1.80;;;;;;;2.88;58.63;101268.69;5007817;28;20117;-71
2022/01/20 12:01:48;;;;;;;13.00;3.42;;;;;;;2.87;58.68;101282.88;5009237;28;20029;-71
2022/01/20 12:04:15;;;;;;;10.27;1.95;;;;;;;2.83;58.62;101276.31;5009070;28;20025;-71
2022/01/20 12:06:46;;;;;;;4.88;1.30;;;;;;;2.87;59.10;101278.44;5021183;28;20076;-71
2022/01/20 12:09:13;;;;;;;17.92;2.45;;;;;;;2.90;59.45;101286.00;5007619;28;20094;-71
2022/01/20 12:11:45;;;;;;;5.32;1.50;;;;;;;2.91;59.50;101286.84;5008524;28;20026;-71
2022/01/20 12:14:13;;;;;;;7.78;1.25;;;;;;;2.83;58.75;101273.69;5003897;28;20574;-71
2022/01/20 12:16:40;;;;;;;14.10;3.03;;;;;;;2.92;59.01;101285.81;5008585;28;20034;-71
2022/01/20 12:19:10;;;;;;;10.32;2.03;;;;;;;2.88;59.43;101279.25;5007927;28;20750;-71
2022/01/20 12:21:37;;;;;;;11.05;2.38;;;;;;;2.82;59.33;101279.97;5008214;28;20053;-71
2022/01/20 12:24:04;;;;;;;7.80;1.63;;;;;;;2.90;59.51;101303.72;5008185;28;20056;-71
2022/01/20 12:26:36;;;;;;;7.40;1.77;;;;;;;2.75;60.89;101308.19;4996100;28;20041;-71
2022/01/20 12:29:07;;;;;;;11.88;1.80;;;;;;;2.63;62.26;101321.03;5007302;28;20026;-71